Time;durP1;ratioP1;P1;durP2;ratioP2;P2;SDS_P1;SDS_P2;PMS_P1;PMS_P2;Temp;Humidity;BMP_temperature;BMP_pressure;BME280_temperature;BME280_humidity;BME280_pressure;Samples;Min_cycle;Max_cycle;Signal;HPM_P1;HPM_P2
2022/06/18 00:02:17;;;;;;;5.13;3.10;;;21.30;82.70;;;;;;5008408;28;20137;-43
2022/06/18 00:04:43;;;;;;;7.65;2.95;;;21.30;84.20;;;;;;5006778;28;20038;-42
2022/06/18 00:07:19;;;;;;;4.00;2.67;;;21.20;82.90;;;;;;4987911;28;20041;-43
2022/06/18 00:09:53;;;;;;;5.95;3.72;;;21.20;84.10;;;;;;5005402;28;20054;-43
2022/06/18 00:15:29;;;;;;;4.53;3.15;;;21.20;84.30;;;;;;4992177;28;20054;-43
2022/06/18 00:17:56;;;;;;;5.68;3.83;;;21.20;86.80;;;;;;5012053;28;20464;-45
2022/06/18 00:20:24;;;;;;;4.05;2.85;;;21.20;84.00;;;;;;5011875;28;20034;-42
2022/06/18 00:22:53;;;;;;;4.47;3.60;;;21.20;83.90;;;;;;5010540;28;20088;-42
2022/06/18 00:25:27;;;;;;;5.35;3.83;;;21.20;84.30;;;;;;5011570;28;20125;-43
2022/06/18 00:27:53;;;;;;;5.50;3.85;;;21.10;84.80;;;;;;5009147;28;20735;-43
2022/06/18 00:30:23;;;;;;;7.22;3.80;;;21.10;84.70;;;;;;4992512;28;20160;-42
2022/06/18 00:32:49;;;;;;;7.88;4.20;;;21.10;85.30;;;;;;5014286;28;20084;-42
2022/06/18 00:35:16;;;;;;;5.03;3.78;;;21.00;85.50;;;;;;5008585;28;20053;-44
2022/06/18 00:37:43;;;;;;;7.35;4.30;;;20.90;85.90;;;;;;5010898;28;20470;-42
2022/06/18 00:40:38;;;;;;;8.43;3.83;;;20.90;86.50;;;;;;5008462;28;20050;-44
2022/06/18 00:43:12;;;;;;;5.65;3.65;;;20.80;87.60;;;;;;5009608;28;20482;-43
2022/06/18 00:45:38;;;;;;;6.43;3.78;;;20.70;87.30;;;;;;5004518;28;20132;-42
2022/06/18 00:48:18;;;;;;;6.28;4.50;;;20.70;87.50;;;;;;5010938;28;20134;-44
2022/06/18 00:50:49;;;;;;;6.95;3.80;;;20.70;88.10;;;;;;5009393;28;20046;-41
2022/06/18 00:53:21;;;;;;;9.50;4.28;;;20.70;88.50;;;;;;5008271;28;20046;-44
2022/06/18 00:55:54;;;;;;;7.00;4.70;;;20.70;89.00;;;;;;5009232;28;20323;-41
2022/06/18 00:58:38;;;;;;;6.75;4.57;;;20.60;89.20;;;;;;5007118;28;20065;-44
2022/06/18 01:01:12;;;;;;;10.40;4.88;;;20.60;90.00;;;;;;5009246;28;20125;-41
2022/06/18 01:03:38;;;;;;;6.00;4.53;;;20.60;89.90;;;;;;5010317;28;20042;-46
2022/06/18 01:06:14;;;;;;;8.65;3.53;;;20.60;89.80;;;;;;5010198;28;20450;-42
2022/06/18 01:08:41;;;;;;;6.45;4.28;;;20.60;90.20;;;;;;5009215;28;20124;-42
2022/06/18 01:11:24;;;;;;;8.43;4.53;;;20.60;90.20;;;;;;5009315;28;20045;-43
2022/06/18 01:13:51;;;;;;;7.50;4.22;;;20.60;90.50;;;;;;5004992;28;20080;-43
2022/06/18 01:16:18;;;;;;;7.88;4.30;;;20.50;90.50;;;;;;5008353;28;20456;-42
2022/06/18 01:18:46;;;;;;;8.20;4.40;;;20.50;90.60;;;;;;5011449;28;20038;-43
2022/06/18 01:21:31;;;;;;;9.13;4.65;;;20.50;90.50;;;;;;5005868;28;20035;-42
2022/06/18 01:24:14;;;;;;;7.43;4.32;;;20.50;91.00;;;;;;5000432;28;20134;-42
2022/06/18 01:26:40;;;;;;;7.10;4.45;;;20.40;90.90;;;;;;5005746;28;20143;-42
2022/06/18 01:29:06;;;;;;;7.40;4.88;;;20.40;90.80;;;;;;5010074;28;20037;-41
2022/06/18 01:31:32;;;;;;;7.38;5.25;;;20.30;90.90;;;;;;5008528;28;20091;-42
2022/06/18 01:33:59;;;;;;;9.60;4.88;;;20.30;91.10;;;;;;5008668;28;20041;-44
2022/06/18 01:36:28;;;;;;;7.07;5.00;;;20.30;91.20;;;;;;5008191;28;20050;-42
2022/06/18 01:38:55;;;;;;;7.82;4.70;;;20.30;91.60;;;;;;5005122;28;20113;-43
2022/06/18 01:44:34;;;;;;;7.93;5.80;;;20.20;91.90;;;;;;5009773;28;20041;-49
2022/06/18 01:47:06;;;;;;;7.82;5.40;;;20.10;91.90;;;;;;5009557;28;20069;-44
2022/06/18 01:49:40;;;;;;;6.30;5.28;;;20.10;92.00;;;;;;5004651;28;20495;-44
2022/06/18 01:52:08;;;;;;;9.85;5.88;;;20.10;92.10;;;;;;5005757;28;20452;-42
2022/06/18 01:54:51;;;;;;;6.38;5.20;;;20.10;92.20;;;;;;5008846;28;20041;-42
2022/06/18 01:57:23;;;;;;;10.23;5.68;;;20.10;92.70;;;;;;4997441;28;20455;-42
2022/06/18 01:59:57;;;;;;;8.38;5.60;;;20.10;92.60;;;;;;5003991;28;20152;-42
2022/06/18 02:02:23;;;;;;;8.57;5.20;;;20.10;92.70;;;;;;5010074;28;20061;-41
2022/06/18 02:04:49;;;;;;;12.80;6.38;;;20.10;92.70;;;;;;5012807;28;20100;-41
2022/06/18 02:07:18;;;;;;;8.95;6.45;;;20.10;92.80;;;;;;5008686;28;20144;-42
2022/06/18 02:09:51;;;;;;;6.60;5.35;;;20.10;93.10;;;;;;5009247;28;20057;-42
2022/06/18 02:12:30;;;;;;;8.15;6.00;;;20.10;93.40;;;;;;5008463;28;20075;-43
2022/06/18 02:15:00;;;;;;;7.28;4.97;;;20.10;93.80;;;;;;5007249;28;20132;-42
2022/06/18 02:17:27;;;;;;;6.68;5.18;;;20.10;93.60;;;;;;5005466;28;20109;-42
2022/06/18 02:20:01;;;;;;;7.25;4.82;;;20.10;93.50;;;;;;5005397;28;20120;-45
2022/06/18 02:22:33;;;;;;;8.23;5.15;;;20.10;93.80;;;;;;5008732;28;20084;-43
2022/06/18 02:24:59;;;;;;;;;;;20.00;93.80;;;;;;5008347;28;20045;-42
2022/06/18 02:27:25;;;;;;;6.68;5.43;;;20.00;94.40;;;;;;5007915;28;19979;-43
2022/06/18 02:29:53;;;;;;;6.97;5.22;;;20.00;93.50;;;;;;5006931;28;20081;-41
2022/06/18 02:32:25;;;;;;;7.35;5.38;;;20.00;93.70;;;;;;5006959;28;20683;-42
2022/06/18 02:34:50;;;;;;;6.90;5.40;;;19.90;93.80;;;;;;4999891;28;20057;-41
2022/06/18 02:37:26;;;;;;;8.23;6.18;;;19.90;94.00;;;;;;5006889;28;20133;-43
2022/06/18 02:39:56;;;;;;;8.73;6.10;;;19.80;94.50;;;;;;5003195;28;20487;-45
2022/06/18 02:42:22;;;;;;;8.80;6.47;;;19.80;94.40;;;;;;5006219;28;20432;-42
2022/06/18 02:44:49;;;;;;;6.78;5.30;;;19.70;94.60;;;;;;5007384;28;20525;-41
2022/06/18 02:47:16;;;;;;;9.50;5.95;;;19.70;94.90;;;;;;5007659;28;20428;-43
2022/06/18 02:49:52;;;;;;;10.90;6.63;;;19.60;95.00;;;;;;5007117;28;20049;-44
2022/06/18 02:52:19;;;;;;;9.98;5.60;;;19.50;95.40;;;;;;5006304;28;20038;-42
2022/06/18 02:54:45;;;;;;;8.52;6.05;;;19.50;95.30;;;;;;5008822;28;20068;-44
2022/06/18 02:57:20;;;;;;;10.25;7.15;;;19.40;95.40;;;;;;5007890;28;20137;-43
2022/06/18 02:59:46;;;;;;;8.07;6.30;;;19.40;95.60;;;;;;4985474;28;20077;-42
2022/06/18 03:02:12;;;;;;;11.57;5.70;;;19.40;95.80;;;;;;5007600;28;20092;-42
2022/06/18 03:04:37;;;;;;;10.38;6.20;;;19.40;96.20;;;;;;5009072;28;20436;-44
2022/06/18 03:07:03;;;;;;;8.48;6.07;;;19.40;96.20;;;;;;5001987;28;20041;-46
2022/06/18 03:09:29;;;;;;;13.57;6.32;;;19.40;96.40;;;;;;5006468;28;20073;-46
2022/06/18 03:12:06;;;;;;;8.93;6.22;;;19.40;96.80;;;;;;5005614;28;20125;-43
2022/06/18 03:14:32;;;;;;;9.77;5.78;;;19.40;97.10;;;;;;5002180;28;20046;-44
2022/06/18 03:16:59;;;;;;;10.43;6.25;;;19.30;97.40;;;;;;5008742;28;20060;-43
2022/06/18 03:19:48;;;;;;;11.07;6.38;;;19.30;97.80;;;;;;5006078;28;20451;-45
2022/06/18 03:22:18;;;;;;;8.60;5.13;;;19.30;98.80;;;;;;5007492;28;20045;-43
2022/06/18 03:24:44;;;;;;;9.70;5.65;;;19.30;98.60;;;;;;5009048;28;20053;-46
2022/06/18 03:27:14;;;;;;;9.07;5.15;;;19.30;98.80;;;;;;5003193;28;20513;-43
2022/06/18 03:29:41;;;;;;;13.40;5.70;;;19.30;99.20;;;;;;5005238;28;20415;-43
2022/06/18 03:32:07;;;;;;;10.25;5.13;;;19.30;99.50;;;;;;5007498;28;20435;-42
2022/06/18 03:34:33;;;;;;;8.25;5.13;;;19.40;99.90;;;;;;5012546;28;20132;-44
2022/06/18 03:36:58;;;;;;;9.85;5.50;;;19.30;99.90;;;;;;4987598;28;20042;-45
2022/06/18 03:39:25;;;;;;;6.20;4.55;;;19.40;99.90;;;;;;5005862;28;20095;-48
2022/06/18 03:41:51;;;;;;;9.75;5.22;;;19.40;99.90;;;;;;4988288;28;20539;-43
2022/06/18 03:44:17;;;;;;;8.40;5.38;;;19.40;99.90;;;;;;5008592;28;20108;-44
2022/06/18 03:46:44;;;;;;;9.68;5.18;;;19.40;99.90;;;;;;5007521;28;20125;-46
2022/06/18 03:49:28;;;;;;;8.55;5.57;;;19.40;99.90;;;;;;5004919;28;20056;-44
2022/06/18 03:51:56;;;;;;;9.15;5.68;;;19.40;99.90;;;;;;5004662;28;20066;-45
2022/06/18 03:54:21;;;;;;;11.18;5.10;;;19.40;99.90;;;;;;5007285;28;20524;-43
2022/06/18 03:56:48;;;;;;;7.40;4.65;;;19.50;99.90;;;;;;5007055;28;20121;-45
2022/06/18 03:59:15;;;;;;;7.00;4.38;;;19.50;99.90;;;;;;5007101;28;20037;-43
2022/06/18 04:01:41;;;;;;;7.00;4.47;;;19.60;99.90;;;;;;5007257;28;20515;-44
2022/06/18 04:04:08;;;;;;;7.63;4.50;;;19.60;99.90;;;;;;5008620;28;20045;-43
2022/06/18 04:06:35;;;;;;;10.20;6.00;;;19.60;99.90;;;;;;4989100;28;20514;-42
2022/06/18 04:09:00;;;;;;;10.20;5.13;;;19.60;99.90;;;;;;5008117;28;20045;-46
2022/06/18 04:11:26;;;;;;;11.68;6.82;;;19.70;99.90;;;;;;5000433;28;20482;-42
2022/06/18 04:13:52;;;;;;;11.13;5.47;;;19.70;99.90;;;;;;5004952;28;20037;-43
2022/06/18 04:16:17;;;;;;;9.18;5.80;;;19.70;99.90;;;;;;5007976;28;20108;-43
2022/06/18 04:18:43;;;;;;;14.85;7.40;;;19.70;99.90;;;;;;5007506;28;20096;-44
2022/06/18 04:21:09;;;;;;;8.90;5.50;;;19.70;99.90;;;;;;5006104;28;20471;-44
2022/06/18 04:23:35;;;;;;;12.18;6.60;;;19.60;99.90;;;;;;5005258;28;20047;-43
2022/06/18 04:26:02;;;;;;;15.90;6.80;;;19.60;99.90;;;;;;5008162;28;20137;-40
2022/06/18 04:28:27;;;;;;;14.07;7.15;;;19.50;99.90;;;;;;5005054;28;20470;-41
2022/06/18 04:30:53;;;;;;;10.73;6.53;;;19.40;99.90;;;;;;5006731;28;20120;-42
2022/06/18 04:33:19;;;;;;;12.70;6.55;;;19.40;99.90;;;;;;5005007;28;20407;-41
2022/06/18 04:35:45;;;;;;;11.70;6.72;;;19.40;99.90;;;;;;5007596;28;20418;-40
2022/06/18 04:38:12;;;;;;;11.35;7.30;;;19.40;99.90;;;;;;5004109;28;20509;-40
2022/06/18 04:40:38;;;;;;;12.23;6.72;;;19.40;99.90;;;;;;5007196;28;20151;-40
2022/06/18 04:43:08;;;;;;;14.38;7.75;;;19.40;99.90;;;;;;5005727;28;20050;-43
2022/06/18 04:45:35;;;;;;;9.05;5.72;;;19.40;99.90;;;;;;5004532;28;20042;-44
2022/06/18 04:48:01;;;;;;;15.80;7.35;;;19.30;99.90;;;;;;5007177;28;20428;-45
2022/06/18 04:50:30;;;;;;;15.77;7.50;;;19.40;99.90;;;;;;5006514;28;20049;-45
2022/06/18 04:52:56;;;;;;;18.42;7.43;;;19.40;99.90;;;;;;5002335;28;20108;-44
2022/06/18 04:55:22;;;;;;;14.05;7.25;;;19.40;99.90;;;;;;5007545;28;20410;-45
2022/06/18 04:57:48;;;;;;;14.30;7.53;;;19.40;99.90;;;;;;5009777;28;20517;-43
2022/06/18 05:00:14;;;;;;;16.52;7.25;;;19.40;99.90;;;;;;5008939;28;20045;-43
2022/06/18 05:02:40;;;;;;;17.58;7.60;;;19.40;99.90;;;;;;5010371;28;20440;-44
2022/06/18 05:05:11;;;;;;;15.40;7.45;;;19.40;99.90;;;;;;5009570;28;20026;-45
2022/06/18 05:07:37;;;;;;;14.98;6.82;;;19.40;99.90;;;;;;5010853;28;20042;-47
2022/06/18 05:10:03;;;;;;;18.92;7.47;;;19.40;99.90;;;;;;5009063;28;20566;-41
2022/06/18 05:12:29;;;;;;;12.73;7.35;;;19.50;99.90;;;;;;5007719;28;20148;-43
2022/06/18 05:14:55;;;;;;;14.10;7.97;;;19.50;99.90;;;;;;5011292;28;20518;-43
2022/06/18 05:17:26;;;;;;;17.50;8.02;;;19.50;99.90;;;;;;5006641;28;20033;-46
2022/06/18 05:19:52;;;;;;;16.77;8.65;;;19.50;99.90;;;;;;5009319;28;20103;-44
2022/06/18 05:22:19;;;;;;;17.00;8.32;;;19.50;99.90;;;;;;5010284;28;20067;-40
2022/06/18 05:24:45;;;;;;;13.63;8.63;;;19.50;99.90;;;;;;5011449;28;20045;-45
2022/06/18 05:27:26;;;;;;;15.43;7.47;;;19.60;99.90;;;;;;5007265;28;20144;-41
2022/06/18 05:29:53;;;;;;;16.43;7.70;;;19.60;99.90;;;;;;4988318;28;20129;-41
2022/06/18 05:32:19;;;;;;;12.15;6.88;;;19.60;99.90;;;;;;5009584;28;20048;-41
2022/06/18 05:34:45;;;;;;;13.63;6.90;;;19.60;99.90;;;;;;5011362;28;20488;-42
2022/06/18 05:37:17;;;;;;;14.50;7.30;;;19.70;99.90;;;;;;5007146;28;20038;-42
2022/06/18 05:39:43;;;;;;;16.42;8.10;;;19.70;99.90;;;;;;5009379;28;20194;-44
2022/06/18 05:42:09;;;;;;;16.95;8.55;;;19.80;99.90;;;;;;5008493;28;20092;-40
2022/06/18 05:44:35;;;;;;;15.48;9.00;;;19.80;99.90;;;;;;5000300;28;21432;-41
2022/06/18 05:47:01;;;;;;;12.63;7.80;;;19.90;99.90;;;;;;5007644;28;20133;-47
2022/06/18 05:49:27;;;;;;;16.27;9.02;;;19.90;99.90;;;;;;5006966;28;20054;-42
2022/06/18 05:51:53;;;;;;;13.80;7.53;;;19.90;99.90;;;;;;5003214;28;20472;-41
2022/06/18 05:54:18;;;;;;;16.13;9.43;;;19.90;99.90;;;;;;5003209;28;20065;-41
2022/06/18 05:56:44;;;;;;;13.77;8.60;;;20.00;99.90;;;;;;5004942;28;20034;-49
2022/06/18 05:59:13;;;;;;;13.23;7.25;;;20.00;99.90;;;;;;5008138;28;20038;-44
2022/06/18 06:01:39;;;;;;;13.30;7.90;;;20.10;99.90;;;;;;5008984;28;20111;-43
2022/06/18 06:04:04;;;;;;;13.10;8.35;;;20.10;99.90;;;;;;5009962;28;20041;-44
2022/06/18 06:06:30;;;;;;;14.65;7.88;;;20.10;99.90;;;;;;5010009;28;20034;-42
2022/06/18 06:08:56;;;;;;;14.48;7.63;;;20.20;99.90;;;;;;5009500;28;20554;-40
2022/06/18 06:11:32;;;;;;;16.45;9.40;;;20.20;99.90;;;;;;5005120;28;20113;-42
2022/06/18 06:13:59;;;;;;;13.73;8.40;;;20.30;99.90;;;;;;4999624;28;20459;-43
2022/06/18 06:16:26;;;;;;;17.42;9.18;;;20.30;99.90;;;;;;5002496;28;20050;-41
2022/06/18 06:18:52;;;;;;;16.65;8.15;;;20.30;99.90;;;;;;5009526;28;20040;-45
2022/06/18 06:21:18;;;;;;;15.93;9.10;;;20.40;99.90;;;;;;5005945;28;20125;-43
2022/06/18 06:23:44;;;;;;;18.20;8.98;;;20.40;99.90;;;;;;5003247;28;20111;-43
2022/06/18 06:26:26;;;;;;;17.25;9.05;;;20.40;99.90;;;;;;5008059;28;20042;-43
2022/06/18 06:28:52;;;;;;;17.88;9.15;;;20.40;99.90;;;;;;4999417;28;20037;-41
2022/06/18 06:31:18;;;;;;;17.92;8.23;;;20.40;99.90;;;;;;5005787;28;20037;-42
2022/06/18 06:33:44;;;;;;;12.48;7.88;;;20.40;99.90;;;;;;5000293;28;20041;-40
2022/06/18 06:36:11;;;;;;;16.70;9.18;;;20.50;99.90;;;;;;5003329;28;20399;-39
2022/06/18 06:38:38;;;;;;;16.95;8.45;;;20.60;99.90;;;;;;5005806;28;20041;-41
2022/06/18 06:41:10;;;;;;;16.63;8.25;;;20.70;99.90;;;;;;4991178;28;20069;-40
2022/06/18 06:43:36;;;;;;;;;;;20.80;99.90;;;;;;5011294;28;20119;-41
2022/06/18 06:46:01;;;;;;;18.50;9.63;;;20.90;99.90;;;;;;5009407;28;19917;-42
2022/06/18 06:48:27;;;;;;;20.02;8.50;;;20.90;99.90;;;;;;5010277;28;20488;-41
2022/06/18 06:50:53;;;;;;;13.18;7.22;;;21.00;99.90;;;;;;5010607;28;20528;-44
2022/06/18 06:53:19;;;;;;;15.80;8.70;;;21.10;99.90;;;;;;5011959;28;20033;-39
2022/06/18 06:58:29;;;;;;;13.15;7.82;;;21.30;99.90;;;;;;5005953;28;20053;-42
2022/06/18 07:00:57;;;;;;;20.60;8.65;;;21.40;99.90;;;;;;5009497;28;20049;-41
2022/06/18 07:03:27;;;;;;;14.98;8.57;;;21.40;99.40;;;;;;4991288;28;20623;-45
2022/06/18 07:05:55;;;;;;;13.80;7.75;;;21.40;99.30;;;;;;5009944;28;20077;-40
2022/06/18 07:08:21;;;;;;;16.95;8.90;;;21.50;99.40;;;;;;5009848;28;20037;-39
2022/06/18 07:10:49;;;;;;;14.88;8.60;;;21.50;99.30;;;;;;5013855;28;20042;-40
2022/06/18 07:13:16;;;;;;;13.60;8.35;;;21.60;98.90;;;;;;5006919;28;20062;-40
2022/06/18 07:15:42;;;;;;;13.63;8.75;;;21.70;98.80;;;;;;5009586;28;20053;-41
2022/06/18 07:18:16;;;;;;;12.20;7.80;;;21.70;98.30;;;;;;5002691;28;20049;-40
2022/06/18 07:20:42;;;;;;;16.77;7.43;;;21.80;98.00;;;;;;5008845;28;20053;-40
2022/06/18 07:23:09;;;;;;;12.02;6.55;;;21.90;97.40;;;;;;4988391;28;20236;-40
2022/06/18 07:25:34;;;;;;;12.88;5.05;;;22.00;97.20;;;;;;5009229;28;20046;-40
2022/06/18 07:28:00;;;;;;;14.85;5.47;;;22.00;96.60;;;;;;5008490;28;20434;-41
2022/06/18 07:30:26;;;;;;;10.15;4.95;;;22.10;96.10;;;;;;5022769;28;20037;-39
2022/06/18 07:32:52;;;;;;;9.77;4.32;;;22.20;95.70;;;;;;5005310;28;20054;-42
2022/06/18 07:35:29;;;;;;;6.45;3.08;;;22.30;95.40;;;;;;4994409;28;20042;-45
2022/06/18 07:37:57;;;;;;;10.30;3.50;;;22.30;95.10;;;;;;4982940;28;20042;-41
2022/06/18 07:40:23;;;;;;;9.57;3.75;;;22.40;94.80;;;;;;5006794;28;20034;-42
2022/06/18 07:42:52;;;;;;;8.90;3.63;;;22.50;94.10;;;;;;4990487;28;20510;-43
2022/06/18 07:45:24;;;;;;;8.60;3.55;;;22.60;93.80;;;;;;5001621;28;20038;-41
2022/06/18 07:47:51;;;;;;;6.32;3.70;;;22.70;93.70;;;;;;5006913;28;20053;-41
2022/06/18 07:50:19;;;;;;;9.23;3.60;;;22.70;93.30;;;;;;5002969;28;20034;-41
2022/06/18 07:52:45;;;;;;;11.18;3.85;;;22.80;93.50;;;;;;5001828;28;20046;-41
2022/06/18 07:55:16;;;;;;;5.93;3.05;;;22.90;93.30;;;;;;5001587;28;20122;-43
2022/06/18 07:57:43;;;;;;;5.65;3.10;;;22.90;92.70;;;;;;5009683;28;20419;-40
2022/06/18 08:00:16;;;;;;;8.43;3.35;;;23.00;92.80;;;;;;5010052;28;20046;-44
2022/06/18 08:02:42;;;;;;;7.22;3.03;;;23.10;92.50;;;;;;5005604;28;20050;-41
2022/06/18 08:05:08;;;;;;;11.68;3.15;;;23.10;92.30;;;;;;5006508;28;20041;-42
2022/06/18 08:07:34;;;;;;;10.30;3.40;;;23.20;91.90;;;;;;5005346;28;20052;-41
2022/06/18 08:10:00;;;;;;;6.13;2.85;;;23.20;91.60;;;;;;5010144;28;20034;-41
2022/06/18 08:12:26;;;;;;;6.22;2.45;;;23.30;91.60;;;;;;5007860;28;20074;-40
2022/06/18 08:14:52;;;;;;;5.15;2.72;;;23.40;91.70;;;;;;5007999;28;20054;-42
2022/06/18 08:17:18;;;;;;;4.63;2.67;;;23.50;91.40;;;;;;5007874;28;20068;-42
2022/06/18 08:19:43;;;;;;;7.53;2.75;;;23.60;91.10;;;;;;5006655;28;20109;-41
2022/06/18 08:22:10;;;;;;;7.15;2.97;;;23.70;91.30;;;;;;5006410;28;20041;-41
2022/06/18 08:24:37;;;;;;;6.05;2.50;;;23.80;91.60;;;;;;4990886;28;20136;-42
2022/06/18 08:27:02;;;;;;;8.73;3.03;;;23.90;91.50;;;;;;5005884;28;20137;-40
2022/06/18 08:29:28;;;;;;;7.90;3.03;;;24.00;91.40;;;;;;5008809;28;20034;-45
2022/06/18 08:31:54;;;;;;;5.03;2.50;;;24.00;91.20;;;;;;4989869;28;20123;-42
2022/06/18 08:34:20;;;;;;;9.20;2.97;;;24.00;91.00;;;;;;5009993;28;20041;-42
2022/06/18 08:36:46;;;;;;;12.23;2.53;;;24.00;90.70;;;;;;5010400;28;20080;-39
2022/06/18 08:39:12;;;;;;;6.95;2.38;;;24.10;90.70;;;;;;5011098;28;20399;-40
2022/06/18 08:42:20;;;;;;;9.93;3.05;;;24.20;90.30;;;;;;5005626;28;20526;-41
2022/06/18 08:45:01;;;;;;;6.55;2.95;;;24.20;88.00;;;;;;5008894;28;20054;-41
2022/06/18 08:47:38;;;;;;;7.53;2.60;;;24.30;89.60;;;;;;5008439;28;20034;-40
2022/06/18 08:50:41;;;;;;;9.57;3.05;;;24.20;88.80;;;;;;4994396;28;20038;-44
2022/06/18 08:53:12;;;;;;;7.88;2.33;;;24.30;87.70;;;;;;5007725;28;20488;-41
2022/06/18 08:55:49;;;;;;;6.25;2.47;;;24.40;89.10;;;;;;5006745;28;20040;-40
2022/06/18 08:58:24;;;;;;;12.07;2.50;;;24.40;88.70;;;;;;5012601;28;20120;-42
2022/06/18 09:01:14;;;;;;;8.95;2.45;;;24.40;88.60;;;;;;5011575;28;20038;-42
2022/06/18 09:04:08;;;;;;;4.97;2.38;;;24.50;89.90;;;;;;5010107;28;20071;-43
2022/06/18 09:06:42;;;;;;;5.95;2.28;;;24.60;88.10;;;;;;5010888;28;20204;-44
2022/06/18 09:09:25;;;;;;;3.63;1.85;;;24.60;87.20;;;;;;5011082;28;20038;-42
2022/06/18 09:12:09;;;;;;;5.53;1.80;;;24.70;87.50;;;;;;5010132;28;20533;-44
2022/06/18 09:14:46;;;;;;;5.00;2.22;;;24.80;85.00;;;;;;5000595;28;20797;-41
2022/06/18 09:17:39;;;;;;;7.00;2.20;;;24.80;85.20;;;;;;5004044;28;20045;-41
2022/06/18 09:20:29;;;;;;;6.22;2.42;;;24.80;84.50;;;;;;4999027;28;20041;-41
2022/06/18 09:22:57;;;;;;;5.20;2.15;;;25.00;87.60;;;;;;5000098;28;20056;-42
2022/06/18 09:25:28;;;;;;;4.60;1.92;;;25.00;85.50;;;;;;5002479;28;20411;-43
2022/06/18 09:28:03;;;;;;;7.25;2.20;;;25.00;86.30;;;;;;5005708;28;20124;-41
2022/06/18 09:30:40;;;;;;;4.10;1.70;;;25.00;84.30;;;;;;5004464;28;20470;-43
2022/06/18 09:33:18;;;;;;;6.05;2.28;;;25.00;85.20;;;;;;5003069;28;20230;-42
2022/06/18 09:35:52;;;;;;;8.52;2.30;;;25.00;86.20;;;;;;5001938;28;20044;-43
2022/06/18 09:38:24;;;;;;;5.47;2.65;;;25.00;86.00;;;;;;5002636;28;20112;-43
2022/06/18 09:41:14;;;;;;;5.75;2.00;;;25.10;86.30;;;;;;5002743;28;20042;-42
2022/06/18 09:43:50;;;;;;;5.47;2.40;;;25.10;86.20;;;;;;5004530;28;20088;-42
2022/06/18 09:46:31;;;;;;;7.38;2.30;;;25.20;85.40;;;;;;4987258;28;20459;-41
2022/06/18 09:48:57;;;;;;;5.87;2.40;;;25.30;84.70;;;;;;5004690;28;20046;-41
2022/06/18 09:51:46;;;;;;;3.53;1.50;;;25.50;84.70;;;;;;5003186;28;20052;-44
2022/06/18 09:54:14;;;;;;;5.43;1.90;;;25.60;85.70;;;;;;5001205;28;20539;-44
2022/06/18 09:56:45;;;;;;;7.88;2.20;;;25.70;84.70;;;;;;5000202;28;20865;-41
2022/06/18 09:59:27;;;;;;;4.07;1.80;;;25.80;85.70;;;;;;5000787;28;20144;-42
2022/06/18 10:01:55;;;;;;;4.72;2.60;;;25.90;85.30;;;;;;4999506;28;20037;-43
2022/06/18 10:07:27;;;;;;;4.32;2.05;;;26.00;84.80;;;;;;5003714;28;20045;-40
2022/06/18 10:10:13;;;;;;;7.15;2.38;;;26.00;84.00;;;;;;5003549;28;20046;-41
2022/06/18 10:12:46;;;;;;;5.68;2.28;;;26.00;82.90;;;;;;5005887;28;20404;-40
2022/06/18 10:15:14;;;;;;;4.70;2.53;;;25.90;83.50;;;;;;5001476;28;20054;-45
2022/06/18 10:18:01;;;;;;;4.63;1.90;;;25.90;83.10;;;;;;4999878;28;20077;-41
2022/06/18 10:20:59;;;;;;;6.63;2.28;;;25.90;82.90;;;;;;5006498;28;20038;-41
2022/06/18 10:23:33;;;;;;;2.47;1.40;;;26.00;82.20;;;;;;5009848;28;20381;-42
2022/06/18 10:26:13;;;;;;;5.40;2.10;;;26.10;82.10;;;;;;5009833;28;20042;-41
2022/06/18 10:28:48;;;;;;;4.90;2.15;;;26.30;82.40;;;;;;5011079;28;20519;-41
2022/06/18 10:31:31;;;;;;;7.30;1.80;;;26.50;81.70;;;;;;5008709;28;20054;-49
2022/06/18 10:34:22;;;;;;;3.90;1.63;;;26.60;81.20;;;;;;5006332;28;20041;-51
2022/06/18 10:36:53;;;;;;;3.38;1.60;;;26.70;81.90;;;;;;5008183;28;20041;-47
2022/06/18 10:39:35;;;;;;;4.37;2.07;;;26.80;80.20;;;;;;5008569;28;20042;-50
2022/06/18 10:42:38;;;;;;;4.57;1.92;;;26.80;78.50;;;;;;5009975;28;20099;-52
2022/06/18 10:45:34;;;;;;;3.40;1.58;;;26.90;80.20;;;;;;5005747;28;22645;-46
2022/06/18 10:48:00;;;;;;;4.00;1.35;;;27.00;77.90;;;;;;5002102;28;20505;-51
2022/06/18 10:50:25;;;;;;;3.63;1.50;;;27.00;77.50;;;;;;5001607;28;20042;-51
2022/06/18 10:53:09;;;;;;;5.57;1.50;;;27.10;76.30;;;;;;5008674;28;20037;-50
2022/06/18 10:55:34;;;;;;;3.78;1.20;;;27.10;73.50;;;;;;5012563;28;20049;-51
2022/06/18 10:58:10;;;;;;;4.05;1.35;;;27.10;74.00;;;;;;5010976;28;20042;-51
2022/06/18 11:00:36;;;;;;;2.80;1.40;;;27.10;70.90;;;;;;5010689;28;20042;-51
2022/06/18 11:03:04;;;;;;;2.55;1.27;;;26.90;71.70;;;;;;5006995;28;20048;-50
2022/06/18 11:05:37;;;;;;;2.97;1.20;;;27.00;74.00;;;;;;5009672;28;20108;-51
2022/06/18 11:08:21;;;;;;;2.55;1.33;;;27.10;73.10;;;;;;5005177;28;20042;-49
2022/06/18 11:10:54;;;;;;;2.95;1.17;;;27.10;72.70;;;;;;4994900;28;20052;-49
2022/06/18 11:13:32;;;;;;;3.50;1.13;;;27.20;70.50;;;;;;5009071;28;20069;-51
2022/06/18 11:16:16;;;;;;;4.65;1.20;;;27.40;70.20;;;;;;5006195;28;20054;-51
2022/06/18 11:19:00;;;;;;;3.83;1.42;;;27.40;67.90;;;;;;5004819;28;20046;-45
2022/06/18 11:21:39;;;;;;;3.05;1.13;;;27.50;68.30;;;;;;5005597;28;20132;-50
2022/06/18 11:24:15;;;;;;;4.30;1.20;;;27.60;69.30;;;;;;5008396;28;20124;-52
2022/06/18 11:26:55;;;;;;;4.50;1.45;;;27.70;69.10;;;;;;5002469;28;20046;-51
2022/06/18 11:29:35;;;;;;;3.45;1.40;;;27.80;68.00;;;;;;5008405;28;20172;-50
2022/06/18 11:32:23;;;;;;;3.60;1.52;;;27.90;64.80;;;;;;4982403;28;20092;-49
2022/06/18 11:35:11;;;;;;;2.83;1.40;;;28.10;62.50;;;;;;4995044;28;20080;-48
2022/06/18 11:37:37;;;;;;;2.60;1.20;;;28.30;65.40;;;;;;4991818;28;20058;-51
2022/06/18 11:40:12;;;;;;;3.10;1.35;;;28.30;66.20;;;;;;4991319;28;20052;-51
2022/06/18 11:42:49;;;;;;;2.92;1.30;;;28.40;65.30;;;;;;5004697;28;20136;-51
2022/06/18 11:45:41;;;;;;;2.40;0.90;;;28.50;63.50;;;;;;5006715;28;20052;-48
2022/06/18 11:48:32;;;;;;;3.60;0.88;;;28.50;58.50;;;;;;5007096;28;20052;-52
2022/06/18 11:51:18;;;;;;;2.78;1.20;;;28.40;59.90;;;;;;5007016;28;20041;-51
2022/06/18 11:54:05;;;;;;;5.47;1.10;;;28.30;59.90;;;;;;4985012;28;20052;-51
2022/06/18 11:56:57;;;;;;;3.78;1.00;;;28.10;60.30;;;;;;5000779;28;20128;-51
2022/06/18 11:59:46;;;;;;;2.03;1.00;;;28.10;63.40;;;;;;4996791;28;20049;-50
2022/06/18 12:02:45;;;;;;;2.33;1.00;;;28.20;65.20;;;;;;5003869;28;20049;-49
2022/06/18 12:05:33;;;;;;;2.95;0.98;;;28.30;63.80;;;;;;5001447;28;20038;-50
2022/06/18 12:08:01;;;;;;;3.33;1.10;;;28.40;56.80;;;;;;5010838;28;20459;-51
2022/06/18 12:10:47;;;;;;;5.50;0.98;;;28.30;60.20;;;;;;4991904;28;20038;-49
2022/06/18 12:13:21;;;;;;;2.75;1.20;;;28.30;60.70;;;;;;4999954;28;23655;-48
2022/06/18 12:15:50;;;;;;;2.25;0.90;;;28.30;61.60;;;;;;5008343;28;20076;-48
2022/06/18 12:18:38;;;;;;;3.65;1.10;;;28.40;63.30;;;;;;4990923;28;20495;-51
2022/06/18 12:21:41;;;;;;;3.15;1.23;;;28.70;64.70;;;;;;5004791;28;20124;-51
2022/06/18 12:24:32;;;;;;;2.67;1.10;;;28.60;59.90;;;;;;5005290;28;20557;-47
2022/06/18 12:27:12;;;;;;;3.10;1.10;;;28.40;61.80;;;;;;4977934;28;20065;-52
2022/06/18 12:30:11;;;;;;;3.58;1.20;;;28.30;66.70;;;;;;5008299;28;20133;-51
2022/06/18 12:32:41;;;;;;;3.50;1.25;;;28.40;62.00;;;;;;5007997;28;20124;-48
2022/06/18 12:35:25;;;;;;;2.42;1.20;;;28.50;63.00;;;;;;5003522;28;20046;-50
2022/06/18 12:38:14;;;;;;;6.45;1.10;;;28.70;61.60;;;;;;5007904;28;20133;-50
2022/06/18 12:40:50;;;;;;;2.00;1.00;;;28.90;61.20;;;;;;5009713;28;20141;-48
2022/06/18 12:43:47;;;;;;;2.00;1.00;;;29.10;59.60;;;;;;5011016;28;20096;-47
2022/06/18 12:46:25;;;;;;;2.17;1.20;;;29.30;61.00;;;;;;5008926;28;20053;-50
2022/06/18 12:49:12;;;;;;;3.92;1.10;;;29.40;58.10;;;;;;5015556;28;20084;-50
2022/06/18 12:51:49;;;;;;;3.33;1.30;;;29.70;57.00;;;;;;5010952;28;20046;-47
2022/06/18 12:54:43;;;;;;;3.15;1.00;;;29.80;56.80;;;;;;5008475;28;20041;-51
2022/06/18 12:57:20;;;;;;;4.03;1.02;;;29.70;54.20;;;;;;5007969;28;20073;-50
2022/06/18 13:00:23;;;;;;;2.85;0.82;;;29.70;57.70;;;;;;5006274;28;20542;-50
2022/06/18 13:03:21;;;;;;;2.65;1.10;;;29.70;58.50;;;;;;5000025;28;20050;-51
2022/06/18 13:05:53;;;;;;;5.03;1.20;;;29.50;56.00;;;;;;5000723;28;20073;-51
2022/06/18 13:08:50;;;;;;;3.85;1.30;;;29.30;57.00;;;;;;5008323;28;20068;-51
2022/06/18 13:11:33;;;;;;;1.98;1.13;;;29.10;57.70;;;;;;5002019;28;20155;-50
2022/06/18 13:14:23;;;;;;;2.63;0.80;;;28.90;59.70;;;;;;5003933;28;20539;-47
2022/06/18 13:16:58;;;;;;;4.70;1.20;;;28.80;60.90;;;;;;5011630;28;20462;-50
2022/06/18 13:19:34;;;;;;;4.47;1.23;;;28.90;60.80;;;;;;5009818;28;20037;-52
2022/06/18 13:22:02;;;;;;;6.60;1.25;;;29.00;59.30;;;;;;5007257;28;20038;-51
2022/06/18 13:30:15;;;;;;;4.90;0.90;;;29.20;56.70;;;;;;5006557;28;20074;-51